sensor_id;sensor_type;location;lat;lon;timestamp;pressure;altitude;pressure_sealevel;temperature;humidity
24558;BME280;12726;49.148;8.582;2023-04-08T00:01:44;100754.78;;;7.87;100.00
24558;BME280;12726;49.148;8.582;2023-04-08T00:04:30;100756.22;;;7.90;100.00
24558;BME280;12726;49.148;8.582;2023-04-08T00:07:15;100753.38;;;7.91;100.00
24558;BME280;12726;49.148;8.582;2023-04-08T00:10:01;100748.84;;;7.92;100.00
24558;BME280;12726;49.148;8.582;2023-04-08T00:12:47;100759.38;;;7.93;100.00
24558;BME280;12726;49.148;8.582;2023-04-08T00:15:33;100752.16;;;7.94;100.00
24558;BME280;12726;49.148;8.582;2023-04-08T00:18:19;100755.28;;;7.97;100.00
24558;BME280;12726;49.148;8.582;2023-04-08T00:21:05;100755.09;;;7.99;100.00
24558;BME280;12726;49.148;8.582;2023-04-08T00:23:50;100758.44;;;8.01;100.00
24558;BME280;12726;49.148;8.582;2023-04-08T00:26:35;100760.28;;;8.00;100.00
24558;BME280;12726;49.148;8.582;2023-04-08T00:29:21;100748.47;;;7.95;100.00
24558;BME280;12726;49.148;8.582;2023-04-08T00:32:07;100761.97;;;8.01;100.00
24558;BME280;12726;49.148;8.582;2023-04-08T00:34:53;100761.97;;;8.01;100.00
24558;BME280;12726;49.148;8.582;2023-04-08T00:37:39;100768.16;;;8.02;100.00
24558;BME280;12726;49.148;8.582;2023-04-08T00:40:24;100755.28;;;7.97;100.00
24558;BME280;12726;49.148;8.582;2023-04-08T00:43:10;100755.28;;;7.97;100.00
24558;BME280;12726;49.148;8.582;2023-04-08T00:45:55;100756.31;;;7.96;100.00
24558;BME280;12726;49.148;8.582;2023-04-08T00:48:42;100754.47;;;7.97;100.00
24558;BME280;12726;49.148;8.582;2023-04-08T00:51:28;100755.28;;;7.97;100.00
24558;BME280;12726;49.148;8.582;2023-04-08T00:54:14;100763.34;;;7.97;100.00
24558;BME280;12726;49.148;8.582;2023-04-08T00:56:59;100764.34;;;7.96;100.00
24558;BME280;12726;49.148;8.582;2023-04-08T00:59:44;100763.53;;;7.96;100.00
24558;BME280;12726;49.148;8.582;2023-04-08T01:02:34;100770.75;;;7.95;100.00
24558;BME280;12726;49.148;8.582;2023-04-08T01:05:27;100765.00;;;7.98;100.00
24558;BME280;12726;49.148;8.582;2023-04-08T01:08:15;100764.16;;;7.98;99.97
24558;BME280;12726;49.148;8.582;2023-04-08T01:11:02;100765.19;;;7.97;100.00
24558;BME280;12726;49.148;8.582;2023-04-08T01:13:50;100771.38;;;7.97;100.00
24558;BME280;12726;49.148;8.582;2023-04-08T01:16:40;100762.72;;;7.95;100.00
24558;BME280;12726;49.148;8.582;2023-04-08T01:19:27;100760.03;;;7.95;100.00
24558;BME280;12726;49.148;8.582;2023-04-08T01:22:22;100759.38;;;7.93;100.00
24558;BME280;12726;49.148;8.582;2023-04-08T01:25:14;100757.34;;;7.95;100.00
24558;BME280;12726;49.148;8.582;2023-04-08T01:28:04;100768.25;;;7.94;100.00
24558;BME280;12726;49.148;8.582;2023-04-08T01:30:50;100761.22;;;7.93;100.00
24558;BME280;12726;49.148;8.582;2023-04-08T01:33:36;100755.88;;;7.93;100.00
24558;BME280;12726;49.148;8.582;2023-04-08T01:36:22;100759.38;;;7.93;100.00
24558;BME280;12726;49.148;8.582;2023-04-08T01:39:08;100759.56;;;7.92;100.00
24558;BME280;12726;49.148;8.582;2023-04-08T01:41:55;100754.38;;;7.90;100.00
24558;BME280;12726;49.148;8.582;2023-04-08T01:44:43;100755.59;;;7.88;100.00
24558;BME280;12726;49.148;8.582;2023-04-08T01:47:30;100752.09;;;7.87;100.00
24558;BME280;12726;49.148;8.582;2023-04-08T01:50:16;100752.25;;;7.85;100.00
24558;BME280;12726;49.148;8.582;2023-04-08T01:53:03;100754.13;;;7.85;100.00
24558;BME280;12726;49.148;8.582;2023-04-08T01:55:54;100748.94;;;7.83;100.00
24558;BME280;12726;49.148;8.582;2023-04-08T01:58:45;100757.81;;;7.84;100.00
24558;BME280;12726;49.148;8.582;2023-04-08T02:01:34;100758.81;;;7.83;100.00
24558;BME280;12726;49.148;8.582;2023-04-08T02:04:19;100751.78;;;7.82;100.00
24558;BME280;12726;49.148;8.582;2023-04-08T02:07:05;100759.66;;;7.83;100.00
24558;BME280;12726;49.148;8.582;2023-04-08T02:09:50;100752.44;;;7.84;100.00
24558;BME280;12726;49.148;8.582;2023-04-08T02:12:36;100758.81;;;7.83;100.00
24558;BME280;12726;49.148;8.582;2023-04-08T02:15:22;100751.00;;;7.81;100.00
24558;BME280;12726;49.148;8.582;2023-04-08T02:18:12;100757.34;;;7.80;100.00
24558;BME280;12726;49.148;8.582;2023-04-08T02:21:04;100760.88;;;7.81;100.00
24558;BME280;12726;49.148;8.582;2023-04-08T02:23:52;100759.22;;;7.80;100.00
24558;BME280;12726;49.148;8.582;2023-04-08T02:26:39;100758.56;;;7.78;100.00
24558;BME280;12726;49.148;8.582;2023-04-08T02:29:29;100763.09;;;7.77;100.00
24558;BME280;12726;49.148;8.582;2023-04-08T02:32:16;100762.25;;;7.77;100.00
24558;BME280;12726;49.148;8.582;2023-04-08T02:35:03;100761.59;;;7.75;100.00
24558;BME280;12726;49.148;8.582;2023-04-08T02:37:49;100767.78;;;7.75;100.00
24558;BME280;12726;49.148;8.582;2023-04-08T02:40:35;100766.13;;;7.74;100.00
24558;BME280;12726;49.148;8.582;2023-04-08T02:43:20;100757.44;;;7.72;100.00
24558;BME280;12726;49.148;8.582;2023-04-08T02:46:10;100762.63;;;7.74;100.00
24558;BME280;12726;49.148;8.582;2023-04-08T02:48:56;100766.50;;;7.71;100.00
24558;BME280;12726;49.148;8.582;2023-04-08T02:51:42;100755.31;;;7.68;100.00
24558;BME280;12726;49.148;8.582;2023-04-08T02:54:28;100753.19;;;7.63;100.00
24558;BME280;12726;49.148;8.582;2023-04-08T02:57:13;100758.72;;;7.62;100.00
24558;BME280;12726;49.148;8.582;2023-04-08T02:59:59;100753.75;;;7.59;100.00
24558;BME280;12726;49.148;8.582;2023-04-08T03:02:45;100763.66;;;7.58;100.00
24558;BME280;12726;49.148;8.582;2023-04-08T03:05:30;100757.63;;;7.56;100.00
24558;BME280;12726;49.148;8.582;2023-04-08T03:08:17;100762.16;;;7.56;100.00
24558;BME280;12726;49.148;8.582;2023-04-08T03:11:02;100759.84;;;7.53;100.00
24558;BME280;12726;49.148;8.582;2023-04-08T03:13:48;100746.81;;;7.50;100.00
24558;BME280;12726;49.148;8.582;2023-04-08T03:16:33;100759.94;;;7.44;100.00
24558;BME280;12726;49.148;8.582;2023-04-08T03:19:19;100751.59;;;7.39;100.00
24558;BME280;12726;49.148;8.582;2023-04-08T03:22:04;100756.41;;;7.29;100.00
24558;BME280;12726;49.148;8.582;2023-04-08T03:24:50;100759.34;;;7.20;100.00
24558;BME280;12726;49.148;8.582;2023-04-08T03:27:36;100767.44;;;7.12;100.00
24558;BME280;12726;49.148;8.582;2023-04-08T03:30:21;100767.16;;;7.06;100.00
24558;BME280;12726;49.148;8.582;2023-04-08T03:33:07;100769.91;;;6.98;100.00
24558;BME280;12726;49.148;8.582;2023-04-08T03:35:52;100770.47;;;6.94;100.00
24558;BME280;12726;49.148;8.582;2023-04-08T03:38:37;100772.97;;;6.95;100.00
24558;BME280;12726;49.148;8.582;2023-04-08T03:41:24;100772.56;;;6.98;100.00
24558;BME280;12726;49.148;8.582;2023-04-08T03:44:10;100774.91;;;7.01;100.00
24558;BME280;12726;49.148;8.582;2023-04-08T03:46:55;100772.69;;;7.05;100.00
24558;BME280;12726;49.148;8.582;2023-04-08T03:49:40;100770.13;;;7.12;100.00
24558;BME280;12726;49.148;8.582;2023-04-08T03:52:26;100768.94;;;7.14;100.00
24558;BME280;12726;49.148;8.582;2023-04-08T03:55:11;100774.94;;;7.16;100.00
24558;BME280;12726;49.148;8.582;2023-04-08T03:57:58;100775.13;;;7.15;100.00
24558;BME280;12726;49.148;8.582;2023-04-08T04:00:43;100769.94;;;7.13;100.00
24558;BME280;12726;49.148;8.582;2023-04-08T04:03:29;100771.44;;;7.16;100.00
24558;BME280;12726;49.148;8.582;2023-04-08T04:06:14;100777.63;;;7.16;100.00
24558;BME280;12726;49.148;8.582;2023-04-08T04:09:00;100773.44;;;7.14;100.00
24558;BME280;12726;49.148;8.582;2023-04-08T04:11:45;100772.63;;;7.13;100.00
24558;BME280;12726;49.148;8.582;2023-04-08T04:14:32;100776.97;;;7.14;100.00
24558;BME280;12726;49.148;8.582;2023-04-08T04:17:17;100784.34;;;7.12;100.00
24558;BME280;12726;49.148;8.582;2023-04-08T04:20:03;100782.03;;;7.09;100.00
24558;BME280;12726;49.148;8.582;2023-04-08T04:22:49;100783.88;;;7.08;100.00
24558;BME280;12726;49.148;8.582;2023-04-08T04:25:34;100777.03;;;7.06;100.00
24558;BME280;12726;49.148;8.582;2023-04-08T04:28:20;100776.19;;;7.05;100.00
24558;BME280;12726;49.148;8.582;2023-04-08T04:31:07;100783.78;;;7.02;100.00
24558;BME280;12726;49.148;8.582;2023-04-08T04:33:52;100785.50;;;6.95;100.00
24558;BME280;12726;49.148;8.582;2023-04-08T04:36:37;100778.00;;;6.90;100.00
24558;BME280;12726;49.148;8.582;2023-04-08T04:39:23;100788.59;;;6.84;100.00
24558;BME280;12726;49.148;8.582;2023-04-08T04:42:08;100791.97;;;6.78;100.00
24558;BME280;12726;49.148;8.582;2023-04-08T04:44:53;100791.69;;;6.73;100.00
24558;BME280;12726;49.148;8.582;2023-04-08T04:47:40;100791.41;;;6.67;100.00
24558;BME280;12726;49.148;8.582;2023-04-08T04:50:26;100790.25;;;6.62;100.00
24558;BME280;12726;49.148;8.582;2023-04-08T04:53:11;100789.94;;;6.57;100.00
24558;BME280;12726;49.148;8.582;2023-04-08T04:55:57;100794.00;;;6.53;100.00
24558;BME280;12726;49.148;8.582;2023-04-08T04:58:44;100789.66;;;6.52;100.00
24558;BME280;12726;49.148;8.582;2023-04-08T05:01:29;100800.34;;;6.52;100.00
24558;BME280;12726;49.148;8.582;2023-04-08T05:04:16;100805.53;;;6.53;100.00
24558;BME280;12726;49.148;8.582;2023-04-08T05:07:01;100801.19;;;6.52;100.00
24558;BME280;12726;49.148;8.582;2023-04-08T05:09:47;100797.03;;;6.50;100.00
24558;BME280;12726;49.148;8.582;2023-04-08T05:12:32;100804.91;;;6.43;100.00
24558;BME280;12726;49.148;8.582;2023-04-08T05:15:17;100809.44;;;6.43;100.00
24558;BME280;12726;49.148;8.582;2023-04-08T05:18:03;100812.44;;;6.40;100.00
24558;BME280;12726;49.148;8.582;2023-04-08T05:20:50;100813.47;;;6.39;100.00
24558;BME280;12726;49.148;8.582;2023-04-08T05:23:35;100817.78;;;6.40;100.00
24558;BME280;12726;49.148;8.582;2023-04-08T05:26:21;100812.09;;;6.43;100.00
24558;BME280;12726;49.148;8.582;2023-04-08T05:29:06;100819.78;;;6.46;100.00
24558;BME280;12726;49.148;8.582;2023-04-08T05:31:52;100825.44;;;6.51;100.00
24558;BME280;12726;49.148;8.582;2023-04-08T05:34:37;100818.38;;;6.58;100.00
24558;BME280;12726;49.148;8.582;2023-04-08T05:37:24;100816.00;;;6.63;100.00
24558;BME280;12726;49.148;8.582;2023-04-08T05:40:09;100815.09;;;6.71;100.00
24558;BME280;12726;49.148;8.582;2023-04-08T05:42:55;100832.13;;;6.78;100.00
24558;BME280;12726;49.148;8.582;2023-04-08T05:45:40;100821.38;;;6.86;100.00
24558;BME280;12726;49.148;8.582;2023-04-08T05:48:25;100834.69;;;6.94;100.00
24558;BME280;12726;49.148;8.582;2023-04-08T05:51:12;100834.81;;;7.00;100.00
24558;BME280;12726;49.148;8.582;2023-04-08T05:53:59;100842.63;;;7.10;100.00
24558;BME280;12726;49.148;8.582;2023-04-08T05:56:44;100838.00;;;7.19;100.00
24558;BME280;12726;49.148;8.582;2023-04-08T05:59:31;100839.59;;;7.28;100.00
24558;BME280;12726;49.148;8.582;2023-04-08T06:02:17;100848.22;;;7.38;100.00
24558;BME280;12726;49.148;8.582;2023-04-08T06:05:03;100841.59;;;7.48;100.00
24558;BME280;12726;49.148;8.582;2023-04-08T06:07:48;100842.81;;;7.61;100.00
24558;BME280;12726;49.148;8.582;2023-04-08T06:10:35;100853.44;;;7.69;100.00
24558;BME280;12726;49.148;8.582;2023-04-08T06:13:20;100853.03;;;7.80;100.00
24558;BME280;12726;49.148;8.582;2023-04-08T06:16:09;100854.13;;;7.85;100.00
24558;BME280;12726;49.148;8.582;2023-04-08T06:18:55;100859.59;;;7.92;100.00
24558;BME280;12726;49.148;8.582;2023-04-08T06:21:40;100863.84;;;8.01;100.00
24558;BME280;12726;49.148;8.582;2023-04-08T06:24:26;100872.81;;;8.08;100.00
24558;BME280;12726;49.148;8.582;2023-04-08T06:27:14;100863.47;;;8.19;100.00
24558;BME280;12726;49.148;8.582;2023-04-08T06:29:59;100871.59;;;8.25;100.00
24558;BME280;12726;49.148;8.582;2023-04-08T06:32:44;100870.41;;;8.28;100.00
24558;BME280;12726;49.148;8.582;2023-04-08T06:35:31;100868.09;;;8.40;100.00
24558;BME280;12726;49.148;8.582;2023-04-08T06:38:16;100874.00;;;8.50;100.00
24558;BME280;12726;49.148;8.582;2023-04-08T06:41:02;100861.78;;;8.47;100.00
24558;BME280;12726;49.148;8.582;2023-04-08T06:43:49;100871.97;;;8.67;100.00
24558;BME280;12726;49.148;8.582;2023-04-08T06:46:34;100873.50;;;8.76;100.00
24558;BME280;12726;49.148;8.582;2023-04-08T06:49:20;100873.09;;;8.93;99.76
24558;BME280;12726;49.148;8.582;2023-04-08T06:52:05;100878.28;;;9.16;98.87
24558;BME280;12726;49.148;8.582;2023-04-08T06:54:51;100870.06;;;9.46;97.02
24558;BME280;12726;49.148;8.582;2023-04-08T06:57:36;100877.19;;;9.60;94.24
24558;BME280;12726;49.148;8.582;2023-04-08T07:00:23;100882.50;;;9.74;92.87
24558;BME280;12726;49.148;8.582;2023-04-08T07:03:08;100879.44;;;10.12;91.26
24558;BME280;12726;49.148;8.582;2023-04-08T07:05:54;100882.59;;;10.50;87.17
24558;BME280;12726;49.148;8.582;2023-04-08T07:08:39;100882.25;;;10.73;87.25
24558;BME280;12726;49.148;8.582;2023-04-08T07:11:25;100883.19;;;11.19;85.63
24558;BME280;12726;49.148;8.582;2023-04-08T07:14:10;100882.81;;;11.55;82.90
24558;BME280;12726;49.148;8.582;2023-04-08T07:16:57;100878.47;;;11.87;81.02
24558;BME280;12726;49.148;8.582;2023-04-08T07:19:42;100882.81;;;12.01;77.36
24558;BME280;12726;49.148;8.582;2023-04-08T07:22:28;100891.13;;;12.06;77.88
24558;BME280;12726;49.148;8.582;2023-04-08T07:25:13;100886.09;;;12.23;77.46
24558;BME280;12726;49.148;8.582;2023-04-08T07:27:59;100893.19;;;12.75;74.20
24558;BME280;12726;49.148;8.582;2023-04-08T07:30:46;100900.44;;;13.51;72.23
24558;BME280;12726;49.148;8.582;2023-04-08T07:33:33;100897.56;;;13.77;70.40
24558;BME280;12726;49.148;8.582;2023-04-08T07:36:18;100897.97;;;14.60;67.72
24558;BME280;12726;49.148;8.582;2023-04-08T07:39:04;100903.69;;;15.00;63.72
24558;BME280;12726;49.148;8.582;2023-04-08T07:41:49;100903.06;;;14.50;63.96
24558;BME280;12726;49.148;8.582;2023-04-08T07:44:35;100904.66;;;14.39;65.62
24558;BME280;12726;49.148;8.582;2023-04-08T07:47:21;100906.91;;;14.79;62.19
24558;BME280;12726;49.148;8.582;2023-04-08T07:50:08;100911.81;;;15.18;62.92
24558;BME280;12726;49.148;8.582;2023-04-08T07:52:53;100907.13;;;15.25;62.57
24558;BME280;12726;49.148;8.582;2023-04-08T07:55:39;100901.84;;;15.95;58.91
24558;BME280;12726;49.148;8.582;2023-04-08T07:58:25;100905.63;;;16.18;58.79
24558;BME280;12726;49.148;8.582;2023-04-08T08:01:15;100908.28;;;16.53;55.27
24558;BME280;12726;49.148;8.582;2023-04-08T08:04:00;100904.44;;;15.90;55.80
24558;BME280;12726;49.148;8.582;2023-04-08T08:06:47;100911.44;;;15.56;57.05
24558;BME280;12726;49.148;8.582;2023-04-08T08:09:32;100906.31;;;15.37;56.77
24558;BME280;12726;49.148;8.582;2023-04-08T08:12:18;100922.94;;;14.80;57.11
24558;BME280;12726;49.148;8.582;2023-04-08T08:15:04;100922.63;;;14.88;59.59
24558;BME280;12726;49.148;8.582;2023-04-08T08:17:49;100920.84;;;14.46;60.23
24558;BME280;12726;49.148;8.582;2023-04-08T08:20:34;100923.19;;;14.18;60.19
24558;BME280;12726;49.148;8.582;2023-04-08T08:23:21;100927.44;;;14.07;61.52
24558;BME280;12726;49.148;8.582;2023-04-08T08:26:07;100928.53;;;14.06;61.52
24558;BME280;12726;49.148;8.582;2023-04-08T08:28:53;100929.69;;;13.92;61.73
24558;BME280;12726;49.148;8.582;2023-04-08T08:31:39;100933.69;;;13.58;62.93
24558;BME280;12726;49.148;8.582;2023-04-08T08:34:24;100927.81;;;13.36;63.28
24558;BME280;12726;49.148;8.582;2023-04-08T08:37:10;100927.00;;;13.29;64.24
24558;BME280;12726;49.148;8.582;2023-04-08T08:39:56;100927.81;;;13.67;63.22
24558;BME280;12726;49.148;8.582;2023-04-08T08:42:48;100928.00;;;14.59;61.14
24558;BME280;12726;49.148;8.582;2023-04-08T08:45:38;100930.41;;;14.24;59.55
24558;BME280;12726;49.148;8.582;2023-04-08T08:48:23;100933.50;;;13.84;58.90
24558;BME280;12726;49.148;8.582;2023-04-08T08:51:09;100942.16;;;13.37;60.54
24558;BME280;12726;49.148;8.582;2023-04-08T08:53:54;100933.97;;;13.50;61.35
24558;BME280;12726;49.148;8.582;2023-04-08T08:56:41;100952.19;;;13.92;59.56
24558;BME280;12726;49.148;8.582;2023-04-08T08:59:27;100940.16;;;14.86;57.71
24558;BME280;12726;49.148;8.582;2023-04-08T09:02:26;100942.28;;;15.62;54.03
24558;BME280;12726;49.148;8.582;2023-04-08T09:05:11;100944.34;;;16.48;51.76
24558;BME280;12726;49.148;8.582;2023-04-08T09:07:57;100944.69;;;16.28;50.22
24558;BME280;12726;49.148;8.582;2023-04-08T09:10:42;100945.91;;;16.32;50.16
24558;BME280;12726;49.148;8.582;2023-04-08T09:13:34;100947.03;;;16.60;47.16
24558;BME280;12726;49.148;8.582;2023-04-08T09:16:20;100950.25;;;15.98;45.66
24558;BME280;12726;49.148;8.582;2023-04-08T09:19:08;100957.34;;;16.23;44.31
24558;BME280;12726;49.148;8.582;2023-04-08T09:22:04;100949.44;;;16.68;42.32
24558;BME280;12726;49.148;8.582;2023-04-08T09:24:50;100947.78;;;16.32;42.67
24558;BME280;12726;49.148;8.582;2023-04-08T09:27:36;100949.19;;;16.23;43.45
24558;BME280;12726;49.148;8.582;2023-04-08T09:30:25;100943.25;;;16.72;43.43
24558;BME280;12726;49.148;8.582;2023-04-08T09:33:11;100950.31;;;17.53;42.34
24558;BME280;12726;49.148;8.582;2023-04-08T09:35:56;100942.59;;;18.12;39.83
24558;BME280;12726;49.148;8.582;2023-04-08T09:38:42;100937.72;;;18.31;40.17
24558;BME280;12726;49.148;8.582;2023-04-08T09:41:28;100938.88;;;18.18;40.59
24558;BME280;12726;49.148;8.582;2023-04-08T09:44:19;100941.09;;;18.38;40.80
24558;BME280;12726;49.148;8.582;2023-04-08T09:47:10;100929.72;;;18.85;38.91
24558;BME280;12726;49.148;8.582;2023-04-08T09:50:00;100943.34;;;19.06;36.89
24558;BME280;12726;49.148;8.582;2023-04-08T09:52:48;100934.06;;;19.29;35.45
24558;BME280;12726;49.148;8.582;2023-04-08T09:55:38;100937.66;;;19.62;36.04
24558;BME280;12726;49.148;8.582;2023-04-08T09:58:28;100938.22;;;19.59;35.64
24558;BME280;12726;49.148;8.582;2023-04-08T10:01:14;100935.56;;;18.71;36.89
24558;BME280;12726;49.148;8.582;2023-04-08T10:04:04;100940.78;;;18.01;38.11
24558;BME280;12726;49.148;8.582;2023-04-08T10:06:53;100940.38;;;17.76;38.75
24558;BME280;12726;49.148;8.582;2023-04-08T10:09:39;100945.19;;;17.57;37.41
24558;BME280;12726;49.148;8.582;2023-04-08T10:12:26;100943.50;;;16.71;40.30
24558;BME280;12726;49.148;8.582;2023-04-08T10:15:25;100941.50;;;16.55;41.34
24558;BME280;12726;49.148;8.582;2023-04-08T10:18:29;100939.03;;;15.95;42.03
24558;BME280;12726;49.148;8.582;2023-04-08T10:21:34;100938.09;;;15.89;42.69
24558;BME280;12726;49.148;8.582;2023-04-08T10:24:20;100944.75;;;15.63;42.63
24558;BME280;12726;49.148;8.582;2023-04-08T10:27:37;100945.34;;;15.54;41.95
24558;BME280;12726;49.148;8.582;2023-04-08T10:30:39;100941.03;;;15.16;42.91
24558;BME280;12726;49.148;8.582;2023-04-08T10:33:31;100951.78;;;14.75;43.73
24558;BME280;12726;49.148;8.582;2023-04-08T10:36:17;100943.59;;;14.63;43.26
24558;BME280;12726;49.148;8.582;2023-04-08T10:39:05;100946.88;;;14.65;43.73
24558;BME280;12726;49.148;8.582;2023-04-08T10:41:50;100940.72;;;14.40;44.79
24558;BME280;12726;49.148;8.582;2023-04-08T10:44:35;100939.88;;;14.15;45.19
24558;BME280;12726;49.148;8.582;2023-04-08T10:47:24;100939.72;;;14.09;46.62
24558;BME280;12726;49.148;8.582;2023-04-08T10:50:14;100947.81;;;13.91;46.10
24558;BME280;12726;49.148;8.582;2023-04-08T10:52:59;100943.22;;;13.67;46.76
24558;BME280;12726;49.148;8.582;2023-04-08T10:55:46;100950.84;;;13.45;47.19
24558;BME280;12726;49.148;8.582;2023-04-08T10:58:32;100953.28;;;13.53;46.60
24558;BME280;12726;49.148;8.582;2023-04-08T11:01:18;100951.34;;;13.36;47.33
24558;BME280;12726;49.148;8.582;2023-04-08T11:04:09;100947.34;;;13.00;46.58
24558;BME280;12726;49.148;8.582;2023-04-08T11:06:55;100950.00;;;13.07;46.67
24558;BME280;12726;49.148;8.582;2023-04-08T11:09:41;100953.53;;;13.01;46.00
24558;BME280;12726;49.148;8.582;2023-04-08T11:12:27;100941.50;;;13.03;46.13
24558;BME280;12726;49.148;8.582;2023-04-08T11:15:13;100936.94;;;12.97;45.99
24558;BME280;12726;49.148;8.582;2023-04-08T11:17:59;100938.75;;;13.10;45.76
24558;BME280;12726;49.148;8.582;2023-04-08T11:20:45;100944.44;;;13.40;45.84
24558;BME280;12726;49.148;8.582;2023-04-08T11:23:31;100942.47;;;13.53;45.66
24558;BME280;12726;49.148;8.582;2023-04-08T11:26:17;100948.44;;;13.62;45.74
24558;BME280;12726;49.148;8.582;2023-04-08T11:29:05;100946.78;;;13.86;45.06
24558;BME280;12726;49.148;8.582;2023-04-08T11:31:50;100951.28;;;13.98;43.76
24558;BME280;12726;49.148;8.582;2023-04-08T11:34:38;100941.00;;;14.07;41.44
24558;BME280;12726;49.148;8.582;2023-04-08T11:37:24;100940.28;;;14.18;42.57
24558;BME280;12726;49.148;8.582;2023-04-08T11:40:11;100940.75;;;14.33;42.69
24558;BME280;12726;49.148;8.582;2023-04-08T11:42:56;100938.69;;;14.29;43.44
24558;BME280;12726;49.148;8.582;2023-04-08T11:45:43;100941.94;;;14.19;45.74
24558;BME280;12726;49.148;8.582;2023-04-08T11:48:29;100944.88;;;14.18;46.44
24558;BME280;12726;49.148;8.582;2023-04-08T11:51:16;100935.63;;;14.25;46.92
24558;BME280;12726;49.148;8.582;2023-04-08T11:54:05;100941.53;;;14.40;48.09
24558;BME280;12726;49.148;8.582;2023-04-08T11:56:51;100930.75;;;14.34;48.76
24558;BME280;12726;49.148;8.582;2023-04-08T11:59:37;100924.09;;;14.30;46.87
24558;BME280;12726;49.148;8.582;2023-04-08T12:02:24;100928.13;;;14.27;48.30
24558;BME280;12726;49.148;8.582;2023-04-08T12:05:09;100935.31;;;13.90;49.56
24558;BME280;12726;49.148;8.582;2023-04-08T12:07:55;100930.63;;;13.79;49.35
24558;BME280;12726;49.148;8.582;2023-04-08T12:10:40;100934.72;;;13.88;50.00
24558;BME280;12726;49.148;8.582;2023-04-08T12:13:25;100934.88;;;13.68;50.12
24558;BME280;12726;49.148;8.582;2023-04-08T12:16:11;100939.84;;;13.71;49.50
24558;BME280;12726;49.148;8.582;2023-04-08T12:18:58;100935.03;;;13.73;49.11
24558;BME280;12726;49.148;8.582;2023-04-08T12:21:44;100944.28;;;13.59;49.43
24558;BME280;12726;49.148;8.582;2023-04-08T12:24:29;100941.91;;;13.76;49.66
24558;BME280;12726;49.148;8.582;2023-04-08T12:27:14;100944.81;;;13.75;49.00
24558;BME280;12726;49.148;8.582;2023-04-08T12:30:01;100947.94;;;13.71;49.22
24558;BME280;12726;49.148;8.582;2023-04-08T12:32:46;100949.25;;;13.69;49.34
24558;BME280;12726;49.148;8.582;2023-04-08T12:35:33;100956.00;;;13.85;49.28
24558;BME280;12726;49.148;8.582;2023-04-08T12:38:18;100947.16;;;14.14;46.44
24558;BME280;12726;49.148;8.582;2023-04-08T12:41:03;100951.22;;;14.05;48.18
24558;BME280;12726;49.148;8.582;2023-04-08T12:43:49;100935.69;;;14.37;46.64
24558;BME280;12726;49.148;8.582;2023-04-08T12:46:35;100944.03;;;14.35;45.86
24558;BME280;12726;49.148;8.582;2023-04-08T12:49:20;100939.53;;;14.29;44.77
24558;BME280;12726;49.148;8.582;2023-04-08T12:52:07;100944.78;;;14.06;45.69
24558;BME280;12726;49.148;8.582;2023-04-08T12:54:52;100945.59;;;14.49;43.52
24558;BME280;12726;49.148;8.582;2023-04-08T12:57:38;100936.28;;;14.82;43.78
24558;BME280;12726;49.148;8.582;2023-04-08T13:00:23;100940.59;;;15.19;43.19
24558;BME280;12726;49.148;8.582;2023-04-08T13:03:08;100939.69;;;15.07;43.49
24558;BME280;12726;49.148;8.582;2023-04-08T13:05:54;100941.78;;;15.23;43.87
24558;BME280;12726;49.148;8.582;2023-04-08T13:08:41;100935.59;;;15.46;41.45
24558;BME280;12726;49.148;8.582;2023-04-08T13:11:26;100932.09;;;15.57;40.65
24558;BME280;12726;49.148;8.582;2023-04-08T13:14:12;100926.00;;;15.74;41.05
24558;BME280;12726;49.148;8.582;2023-04-08T13:16:57;100936.66;;;15.75;41.38
24558;BME280;12726;49.148;8.582;2023-04-08T13:19:43;100925.53;;;15.65;42.00
24558;BME280;12726;49.148;8.582;2023-04-08T13:22:28;100930.59;;;15.32;41.85
24558;BME280;12726;49.148;8.582;2023-04-08T13:25:15;100917.66;;;15.45;42.87
24558;BME280;12726;49.148;8.582;2023-04-08T13:28:00;100919.09;;;15.48;41.95
24558;BME280;12726;49.148;8.582;2023-04-08T13:30:46;100918.13;;;15.42;43.04
24558;BME280;12726;49.148;8.582;2023-04-08T13:33:31;100918.53;;;15.27;43.07
24558;BME280;12726;49.148;8.582;2023-04-08T13:36:16;100929.84;;;15.13;43.02
24558;BME280;12726;49.148;8.582;2023-04-08T13:39:01;100914.31;;;15.02;44.40
24558;BME280;12726;49.148;8.582;2023-04-08T13:41:48;100923.09;;;15.15;42.88
24558;BME280;12726;49.148;8.582;2023-04-08T13:44:34;100912.63;;;15.19;43.87
24558;BME280;12726;49.148;8.582;2023-04-08T13:47:19;100925.03;;;15.26;44.70
24558;BME280;12726;49.148;8.582;2023-04-08T13:50:06;100918.09;;;15.01;44.58
24558;BME280;12726;49.148;8.582;2023-04-08T13:52:51;100922.09;;;14.80;44.97
24558;BME280;12726;49.148;8.582;2023-04-08T13:55:37;100924.66;;;14.57;44.80
24558;BME280;12726;49.148;8.582;2023-04-08T13:58:24;100928.47;;;14.56;45.96
24558;BME280;12726;49.148;8.582;2023-04-08T14:01:09;100923.16;;;14.42;45.91
24558;BME280;12726;49.148;8.582;2023-04-08T14:03:55;100919.81;;;14.47;46.35
24558;BME280;12726;49.148;8.582;2023-04-08T14:06:40;100921.88;;;14.27;48.51
24558;BME280;12726;49.148;8.582;2023-04-08T14:09:26;100920.50;;;14.36;47.73
24558;BME280;12726;49.148;8.582;2023-04-08T14:12:12;100920.34;;;14.31;47.43
24558;BME280;12726;49.148;8.582;2023-04-08T14:14:59;100920.16;;;14.50;47.51
24558;BME280;12726;49.148;8.582;2023-04-08T14:17:45;100915.13;;;14.72;47.46
24558;BME280;12726;49.148;8.582;2023-04-08T14:20:31;100920.63;;;14.84;47.58
24558;BME280;12726;49.148;8.582;2023-04-08T14:23:18;100910.50;;;15.21;46.17
24558;BME280;12726;49.148;8.582;2023-04-08T14:26:03;100906.28;;;15.25;45.81
24558;BME280;12726;49.148;8.582;2023-04-08T14:28:49;100914.78;;;15.28;45.56
24558;BME280;12726;49.148;8.582;2023-04-08T14:31:36;100907.88;;;15.14;46.47